sensor_id;sensor_type;location;lat;lon;timestamp;pressure;altitude;pressure_sealevel;temperature;humidity
15634;BME280;14654;48.898;8.308;2022-08-24T00:00:11;100298.16;;;19.13;87.42
15634;BME280;14654;48.898;8.308;2022-08-24T00:02:37;100294.97;;;19.06;87.21
15634;BME280;14654;48.898;8.308;2022-08-24T00:05:03;100285.38;;;19.05;87.56
15634;BME280;14654;48.898;8.308;2022-08-24T00:07:29;100292.47;;;19.03;87.89
15634;BME280;14654;48.898;8.308;2022-08-24T00:09:55;100303.81;;;19.03;88.23
15634;BME280;14654;48.898;8.308;2022-08-24T00:12:22;100303.88;;;19.02;88.00
15634;BME280;14654;48.898;8.308;2022-08-24T00:14:47;100301.25;;;19.02;88.75
15634;BME280;14654;48.898;8.308;2022-08-24T00:17:13;100302.16;;;19.01;89.22
15634;BME280;14654;48.898;8.308;2022-08-24T00:19:39;100304.00;;;18.99;89.12
15634;BME280;14654;48.898;8.308;2022-08-24T00:22:05;100301.59;;;18.94;89.14
15634;BME280;14654;48.898;8.308;2022-08-24T00:24:30;100292.06;;;18.92;89.12
15634;BME280;14654;48.898;8.308;2022-08-24T00:26:56;100305.44;;;18.85;88.79
15634;BME280;14654;48.898;8.308;2022-08-24T00:29:22;100309.13;;;18.81;88.49
15634;BME280;14654;48.898;8.308;2022-08-24T00:31:48;100304.84;;;18.79;89.02
15634;BME280;14654;48.898;8.308;2022-08-24T00:34:14;100307.66;;;18.74;89.34
15634;BME280;14654;48.898;8.308;2022-08-24T00:36:42;100305.25;;;18.69;89.63
15634;BME280;14654;48.898;8.308;2022-08-24T00:39:07;100302.94;;;18.62;89.97
15634;BME280;14654;48.898;8.308;2022-08-24T00:41:34;100303.94;;;18.59;90.29
15634;BME280;14654;48.898;8.308;2022-08-24T00:44:03;100304.19;;;18.53;89.84
15634;BME280;14654;48.898;8.308;2022-08-24T00:49:09;100298.47;;;18.43;90.29
15634;BME280;14654;48.898;8.308;2022-08-24T00:51:40;100310.00;;;18.39;90.65
15634;BME280;14654;48.898;8.308;2022-08-24T00:54:11;100307.66;;;18.33;90.77
15634;BME280;14654;48.898;8.308;2022-08-24T00:56:41;100304.34;;;18.27;91.03
15634;BME280;14654;48.898;8.308;2022-08-24T00:59:17;100303.69;;;18.22;90.87
15634;BME280;14654;48.898;8.308;2022-08-24T01:01:45;100302.94;;;18.19;91.48
15634;BME280;14654;48.898;8.308;2022-08-24T01:04:19;100318.03;;;18.13;91.20
15634;BME280;14654;48.898;8.308;2022-08-24T01:06:46;100311.22;;;18.08;91.58
15634;BME280;14654;48.898;8.308;2022-08-24T01:09:13;100313.25;;;18.01;91.77
15634;BME280;14654;48.898;8.308;2022-08-24T01:11:38;100311.81;;;17.92;91.88
15634;BME280;14654;48.898;8.308;2022-08-24T01:14:05;100319.00;;;17.87;91.86
15634;BME280;14654;48.898;8.308;2022-08-24T01:16:31;100312.28;;;17.80;92.20
15634;BME280;14654;48.898;8.308;2022-08-24T01:19:37;100321.31;;;17.73;92.47
15634;BME280;14654;48.898;8.308;2022-08-24T01:24:53;100326.94;;;17.62;92.60
15634;BME280;14654;48.898;8.308;2022-08-24T01:27:18;100327.84;;;17.61;92.69
15634;BME280;14654;48.898;8.308;2022-08-24T01:29:44;100326.16;;;17.60;92.82
15634;BME280;14654;48.898;8.308;2022-08-24T01:32:11;100323.53;;;17.60;92.95
15634;BME280;14654;48.898;8.308;2022-08-24T01:34:37;100330.53;;;17.59;93.35
15634;BME280;14654;48.898;8.308;2022-08-24T01:37:03;100326.22;;;17.58;94.06
15634;BME280;14654;48.898;8.308;2022-08-24T01:39:35;100313.31;;;17.54;94.06
15634;BME280;14654;48.898;8.308;2022-08-24T01:42:02;100317.91;;;17.47;94.24
15634;BME280;14654;48.898;8.308;2022-08-24T01:44:29;100304.94;;;17.44;94.56
15634;BME280;14654;48.898;8.308;2022-08-24T01:46:55;100303.34;;;17.40;94.54
15634;BME280;14654;48.898;8.308;2022-08-24T01:49:24;100318.34;;;17.34;94.96
15634;BME280;14654;48.898;8.308;2022-08-24T01:51:49;100319.31;;;17.32;95.14
15634;BME280;14654;48.898;8.308;2022-08-24T01:54:15;100318.41;;;17.33;95.87
15634;BME280;14654;48.898;8.308;2022-08-24T01:56:41;100309.69;;;17.32;96.32
15634;BME280;14654;48.898;8.308;2022-08-24T01:59:06;100315.72;;;17.34;96.93
15634;BME280;14654;48.898;8.308;2022-08-24T02:01:35;100311.31;;;17.36;97.67
15634;BME280;14654;48.898;8.308;2022-08-24T02:04:03;100314.72;;;17.39;98.16
15634;BME280;14654;48.898;8.308;2022-08-24T02:06:29;100326.06;;;17.39;98.36
15634;BME280;14654;48.898;8.308;2022-08-24T02:08:56;100324.28;;;17.40;99.30
15634;BME280;14654;48.898;8.308;2022-08-24T02:11:21;100333.84;;;17.41;99.84
15634;BME280;14654;48.898;8.308;2022-08-24T02:13:47;100320.94;;;17.36;99.60
15634;BME280;14654;48.898;8.308;2022-08-24T02:16:12;100330.59;;;17.34;99.87
15634;BME280;14654;48.898;8.308;2022-08-24T02:18:39;100332.47;;;17.30;99.79
15634;BME280;14654;48.898;8.308;2022-08-24T02:21:08;100342.97;;;17.29;99.91
15634;BME280;14654;48.898;8.308;2022-08-24T02:23:36;100337.00;;;17.25;99.85
15634;BME280;14654;48.898;8.308;2022-08-24T02:26:03;100336.19;;;17.23;100.00
15634;BME280;14654;48.898;8.308;2022-08-24T02:28:29;100345.94;;;17.19;99.47
15634;BME280;14654;48.898;8.308;2022-08-24T02:30:54;100350.41;;;17.16;99.84
15634;BME280;14654;48.898;8.308;2022-08-24T02:33:20;100351.47;;;17.10;99.13
15634;BME280;14654;48.898;8.308;2022-08-24T02:35:48;100351.69;;;17.04;98.34
15634;BME280;14654;48.898;8.308;2022-08-24T02:38:13;100348.34;;;17.00;98.46
15634;BME280;14654;48.898;8.308;2022-08-24T02:40:38;100350.97;;;17.00;98.33
15634;BME280;14654;48.898;8.308;2022-08-24T02:43:04;100348.28;;;17.02;98.71
15634;BME280;14654;48.898;8.308;2022-08-24T02:45:30;100349.97;;;17.03;99.11
15634;BME280;14654;48.898;8.308;2022-08-24T02:47:55;100345.59;;;17.03;99.03
15634;BME280;14654;48.898;8.308;2022-08-24T02:50:21;100354.41;;;17.01;98.65
15634;BME280;14654;48.898;8.308;2022-08-24T02:52:47;100348.34;;;17.00;98.51
15634;BME280;14654;48.898;8.308;2022-08-24T02:55:17;100353.56;;;17.00;98.81
15634;BME280;14654;48.898;8.308;2022-08-24T02:57:43;100354.50;;;16.98;98.89
15634;BME280;14654;48.898;8.308;2022-08-24T03:00:12;100352.78;;;16.98;99.26
15634;BME280;14654;48.898;8.308;2022-08-24T03:02:38;100346.72;;;16.96;99.45
15634;BME280;14654;48.898;8.308;2022-08-24T03:05:04;100345.06;;;16.94;100.00
15634;BME280;14654;48.898;8.308;2022-08-24T03:07:30;100356.41;;;16.92;100.00
15634;BME280;14654;48.898;8.308;2022-08-24T03:09:55;100351.31;;;16.88;100.00
15634;BME280;14654;48.898;8.308;2022-08-24T03:12:20;100355.00;;;16.82;100.00
15634;BME280;14654;48.898;8.308;2022-08-24T03:14:46;100352.66;;;16.74;99.79
15634;BME280;14654;48.898;8.308;2022-08-24T03:17:11;100353.72;;;16.69;99.70
15634;BME280;14654;48.898;8.308;2022-08-24T03:19:37;100346.84;;;16.66;99.37
15634;BME280;14654;48.898;8.308;2022-08-24T03:22:03;100348.66;;;16.64;99.64
15634;BME280;14654;48.898;8.308;2022-08-24T03:24:29;100353.06;;;16.62;99.62
15634;BME280;14654;48.898;8.308;2022-08-24T03:26:54;100347.00;;;16.61;100.00
15634;BME280;14654;48.898;8.308;2022-08-24T03:29:19;100340.06;;;16.60;100.00
15634;BME280;14654;48.898;8.308;2022-08-24T03:31:45;100346.09;;;16.63;100.00
15634;BME280;14654;48.898;8.308;2022-08-24T03:34:11;100342.63;;;16.62;100.00
15634;BME280;14654;48.898;8.308;2022-08-24T03:36:38;100341.66;;;16.65;100.00
15634;BME280;14654;48.898;8.308;2022-08-24T03:39:04;100338.09;;;16.67;100.00
15634;BME280;14654;48.898;8.308;2022-08-24T03:41:30;100348.56;;;16.67;100.00
15634;BME280;14654;48.898;8.308;2022-08-24T03:43:55;100353.81;;;16.66;100.00
15634;BME280;14654;48.898;8.308;2022-08-24T03:46:25;100354.84;;;16.61;100.00
15634;BME280;14654;48.898;8.308;2022-08-24T03:48:52;100350.75;;;16.53;100.00
15634;BME280;14654;48.898;8.308;2022-08-24T03:51:20;100353.56;;;16.46;100.00
15634;BME280;14654;48.898;8.308;2022-08-24T03:53:47;100351.03;;;16.43;100.00
15634;BME280;14654;48.898;8.308;2022-08-24T03:56:13;100359.03;;;16.39;100.00
15634;BME280;14654;48.898;8.308;2022-08-24T03:58:39;100361.81;;;16.34;100.00
15634;BME280;14654;48.898;8.308;2022-08-24T04:01:06;100367.09;;;16.33;100.00
15634;BME280;14654;48.898;8.308;2022-08-24T04:03:40;100365.38;;;16.32;100.00
15634;BME280;14654;48.898;8.308;2022-08-24T04:06:06;100364.47;;;16.33;100.00
15634;BME280;14654;48.898;8.308;2022-08-24T04:08:33;100365.31;;;16.33;100.00
15634;BME280;14654;48.898;8.308;2022-08-24T04:10:59;100360.09;;;16.33;100.00
15634;BME280;14654;48.898;8.308;2022-08-24T04:13:24;100353.97;;;16.34;100.00
15634;BME280;14654;48.898;8.308;2022-08-24T04:15:50;100353.06;;;16.35;100.00
15634;BME280;14654;48.898;8.308;2022-08-24T04:18:17;100359.09;;;16.37;100.00
15634;BME280;14654;48.898;8.308;2022-08-24T04:20:43;100359.91;;;16.39;100.00
15634;BME280;14654;48.898;8.308;2022-08-24T04:23:10;100350.31;;;16.40;100.00
15634;BME280;14654;48.898;8.308;2022-08-24T04:25:41;100361.63;;;16.40;100.00
15634;BME280;14654;48.898;8.308;2022-08-24T04:28:06;100361.66;;;16.39;100.00
15634;BME280;14654;48.898;8.308;2022-08-24T04:30:31;100359.94;;;16.38;100.00
15634;BME280;14654;48.898;8.308;2022-08-24T04:32:57;100357.41;;;16.35;100.00
15634;BME280;14654;48.898;8.308;2022-08-24T04:35:23;100360.94;;;16.34;100.00
15634;BME280;14654;48.898;8.308;2022-08-24T04:37:48;100361.06;;;16.30;100.00
15634;BME280;14654;48.898;8.308;2022-08-24T04:40:14;100359.38;;;16.28;100.00
15634;BME280;14654;48.898;8.308;2022-08-24T04:42:39;100368.09;;;16.27;100.00
15634;BME280;14654;48.898;8.308;2022-08-24T04:45:05;100370.72;;;16.27;100.00
15634;BME280;14654;48.898;8.308;2022-08-24T04:47:30;100370.72;;;16.27;100.00
15634;BME280;14654;48.898;8.308;2022-08-24T04:49:55;100378.56;;;16.27;100.00
15634;BME280;14654;48.898;8.308;2022-08-24T04:52:21;100375.94;;;16.27;100.00
15634;BME280;14654;48.898;8.308;2022-08-24T04:54:46;100382.94;;;16.26;100.00
15634;BME280;14654;48.898;8.308;2022-08-24T04:57:11;100380.31;;;16.26;100.00
15634;BME280;14654;48.898;8.308;2022-08-24T04:59:38;100382.84;;;16.29;100.00
15634;BME280;14654;48.898;8.308;2022-08-24T05:02:03;100385.22;;;16.37;100.00
15634;BME280;14654;48.898;8.308;2022-08-24T05:04:29;100387.59;;;16.45;100.00
15634;BME280;14654;48.898;8.308;2022-08-24T05:06:54;100391.66;;;16.54;100.00
15634;BME280;14654;48.898;8.308;2022-08-24T05:09:19;100392.31;;;16.60;100.00
15634;BME280;14654;48.898;8.308;2022-08-24T05:11:45;100398.19;;;16.67;100.00
15634;BME280;14654;48.898;8.308;2022-08-24T05:14:11;100390.09;;;16.75;100.00
15634;BME280;14654;48.898;8.308;2022-08-24T05:16:37;100397.72;;;16.81;100.00
15634;BME280;14654;48.898;8.308;2022-08-24T05:19:04;100399.16;;;16.91;100.00
15634;BME280;14654;48.898;8.308;2022-08-24T05:21:31;100400.56;;;17.02;100.00
15634;BME280;14654;48.898;8.308;2022-08-24T05:23:57;100398.50;;;17.12;100.00
15634;BME280;14654;48.898;8.308;2022-08-24T05:26:25;100401.66;;;17.21;100.00
15634;BME280;14654;48.898;8.308;2022-08-24T05:28:56;100403.38;;;17.46;100.00
15634;BME280;14654;48.898;8.308;2022-08-24T05:31:24;100405.69;;;17.79;100.00
15634;BME280;14654;48.898;8.308;2022-08-24T05:33:50;100407.47;;;18.03;100.00
15634;BME280;14654;48.898;8.308;2022-08-24T05:39:13;100416.50;;;18.18;100.00
15634;BME280;14654;48.898;8.308;2022-08-24T05:41:39;100417.28;;;18.20;99.75
15634;BME280;14654;48.898;8.308;2022-08-24T05:44:07;100414.56;;;18.23;99.92
15634;BME280;14654;48.898;8.308;2022-08-24T05:46:32;100421.56;;;18.22;99.47
15634;BME280;14654;48.898;8.308;2022-08-24T05:48:58;100403.09;;;18.25;99.54
15634;BME280;14654;48.898;8.308;2022-08-24T05:51:24;100407.84;;;18.38;98.86
15634;BME280;14654;48.898;8.308;2022-08-24T05:53:50;100410.50;;;18.60;98.04
15634;BME280;14654;48.898;8.308;2022-08-24T05:56:17;100421.59;;;18.87;96.94
15634;BME280;14654;48.898;8.308;2022-08-24T05:58:43;100420.31;;;19.18;95.83
15634;BME280;14654;48.898;8.308;2022-08-24T06:01:17;100422.31;;;19.53;94.38
15634;BME280;14654;48.898;8.308;2022-08-24T06:03:45;100416.78;;;19.80;93.81
15634;BME280;14654;48.898;8.308;2022-08-24T06:06:11;100418.94;;;20.10;92.38
15634;BME280;14654;48.898;8.308;2022-08-24T06:08:40;100407.97;;;20.38;91.42
15634;BME280;14654;48.898;8.308;2022-08-24T06:11:05;100418.63;;;20.72;90.39
15634;BME280;14654;48.898;8.308;2022-08-24T06:13:31;100420.44;;;21.07;89.25
15634;BME280;14654;48.898;8.308;2022-08-24T06:16:11;100418.03;;;21.71;87.93
15634;BME280;14654;48.898;8.308;2022-08-24T06:18:37;100419.47;;;22.42;85.84
15634;BME280;14654;48.898;8.308;2022-08-24T06:21:07;100419.56;;;23.16;83.44
15634;BME280;14654;48.898;8.308;2022-08-24T06:23:33;100429.94;;;23.79;81.30
15634;BME280;14654;48.898;8.308;2022-08-24T06:25:59;100419.38;;;24.35;79.91
15634;BME280;14654;48.898;8.308;2022-08-24T06:28:43;100410.34;;;24.92;77.93
15634;BME280;14654;48.898;8.308;2022-08-24T06:31:08;100409.41;;;25.06;77.32
15634;BME280;14654;48.898;8.308;2022-08-24T06:33:34;100408.03;;;25.01;77.29
15634;BME280;14654;48.898;8.308;2022-08-24T06:35:59;100410.47;;;25.30;76.11
15634;BME280;14654;48.898;8.308;2022-08-24T06:38:25;100419.31;;;25.56;75.52
15634;BME280;14654;48.898;8.308;2022-08-24T06:40:50;100415.44;;;25.73;74.99
15634;BME280;14654;48.898;8.308;2022-08-24T06:43:15;100411.38;;;25.93;73.80
15634;BME280;14654;48.898;8.308;2022-08-24T06:45:41;100410.09;;;26.12;72.03
15634;BME280;14654;48.898;8.308;2022-08-24T06:48:07;100414.81;;;26.20;70.58
15634;BME280;14654;48.898;8.308;2022-08-24T06:50:33;100414.63;;;26.10;68.44
15634;BME280;14654;48.898;8.308;2022-08-24T06:52:59;100414.00;;;26.06;67.54
15634;BME280;14654;48.898;8.308;2022-08-24T06:55:24;100419.84;;;26.36;66.81
15634;BME280;14654;48.898;8.308;2022-08-24T06:57:50;100412.09;;;26.57;66.16
15634;BME280;14654;48.898;8.308;2022-08-24T07:00:16;100411.28;;;26.68;65.33
15634;BME280;14654;48.898;8.308;2022-08-24T07:02:41;100417.78;;;26.88;64.96
15634;BME280;14654;48.898;8.308;2022-08-24T07:05:07;100411.78;;;26.97;64.83
15634;BME280;14654;48.898;8.308;2022-08-24T07:07:32;100419.50;;;27.00;64.24
15634;BME280;14654;48.898;8.308;2022-08-24T07:09:59;100421.34;;;27.11;64.10
15634;BME280;14654;48.898;8.308;2022-08-24T07:12:25;100411.66;;;27.10;64.11
15634;BME280;14654;48.898;8.308;2022-08-24T07:14:51;100416.75;;;27.02;63.64
15634;BME280;14654;48.898;8.308;2022-08-24T07:17:17;100422.88;;;26.91;63.20
15634;BME280;14654;48.898;8.308;2022-08-24T07:19:43;100416.25;;;26.72;63.33
15634;BME280;14654;48.898;8.308;2022-08-24T07:22:10;100420.56;;;26.62;63.71
15634;BME280;14654;48.898;8.308;2022-08-24T07:24:35;100419.38;;;26.66;64.31
15634;BME280;14654;48.898;8.308;2022-08-24T07:27:02;100422.59;;;26.58;64.55
15634;BME280;14654;48.898;8.308;2022-08-24T07:29:27;100421.81;;;26.69;64.79
15634;BME280;14654;48.898;8.308;2022-08-24T07:31:53;100425.69;;;26.76;64.79
15634;BME280;14654;48.898;8.308;2022-08-24T07:34:19;100427.91;;;26.58;64.72
15634;BME280;14654;48.898;8.308;2022-08-24T07:36:44;100436.31;;;26.52;64.91
15634;BME280;14654;48.898;8.308;2022-08-24T07:39:10;100430.00;;;26.42;64.85
15634;BME280;14654;48.898;8.308;2022-08-24T07:41:41;100433.75;;;26.39;65.36
15634;BME280;14654;48.898;8.308;2022-08-24T07:44:07;100430.06;;;26.29;65.53
15634;BME280;14654;48.898;8.308;2022-08-24T07:46:33;100425.22;;;26.23;65.84
15634;BME280;14654;48.898;8.308;2022-08-24T07:48:59;100428.44;;;26.15;66.00
15634;BME280;14654;48.898;8.308;2022-08-24T07:51:24;100426.31;;;26.07;65.74
15634;BME280;14654;48.898;8.308;2022-08-24T07:53:51;100427.81;;;25.98;66.08
15634;BME280;14654;48.898;8.308;2022-08-24T07:56:16;100429.53;;;25.86;66.13
15634;BME280;14654;48.898;8.308;2022-08-24T07:58:42;100427.63;;;25.76;66.59
15634;BME280;14654;48.898;8.308;2022-08-24T08:01:08;100424.56;;;25.69;66.47
15634;BME280;14654;48.898;8.308;2022-08-24T08:03:35;100420.97;;;25.70;66.94
15634;BME280;14654;48.898;8.308;2022-08-24T08:06:04;100419.81;;;25.74;66.82
15634;BME280;14654;48.898;8.308;2022-08-24T08:08:30;100420.75;;;25.86;66.84
15634;BME280;14654;48.898;8.308;2022-08-24T08:10:58;100425.31;;;25.84;66.68
15634;BME280;14654;48.898;8.308;2022-08-24T08:13:23;100425.72;;;25.91;66.61
15634;BME280;14654;48.898;8.308;2022-08-24T08:15:48;100420.81;;;25.97;66.32
15634;BME280;14654;48.898;8.308;2022-08-24T08:18:15;100422.53;;;25.85;66.01
15634;BME280;14654;48.898;8.308;2022-08-24T08:20:42;100419.03;;;25.85;66.01
15634;BME280;14654;48.898;8.308;2022-08-24T08:23:09;100410.69;;;25.78;66.64
15634;BME280;14654;48.898;8.308;2022-08-24T08:25:55;100423.06;;;25.91;66.66
15634;BME280;14654;48.898;8.308;2022-08-24T08:28:22;100419.00;;;25.98;66.47
15634;BME280;14654;48.898;8.308;2022-08-24T08:30:48;100420.88;;;26.09;65.95
15634;BME280;14654;48.898;8.308;2022-08-24T08:33:13;100420.69;;;26.12;66.44
15634;BME280;14654;48.898;8.308;2022-08-24T08:35:39;100415.44;;;26.23;66.21
15634;BME280;14654;48.898;8.308;2022-08-24T08:38:06;100418.84;;;26.25;66.16
15634;BME280;14654;48.898;8.308;2022-08-24T08:49:02;100415.19;;;26.39;64.08
15634;BME280;14654;48.898;8.308;2022-08-24T08:54:44;100407.91;;;26.66;63.94
15634;BME280;14654;48.898;8.308;2022-08-24T08:57:29;100409.22;;;26.84;64.07
15634;BME280;14654;48.898;8.308;2022-08-24T09:00:16;100413.00;;;27.04;63.07
15634;BME280;14654;48.898;8.308;2022-08-24T09:02:55;100409.72;;;27.01;62.64
15634;BME280;14654;48.898;8.308;2022-08-24T09:35:05;100402.00;;;28.23;58.27
15634;BME280;14654;48.898;8.308;2022-08-24T09:37:38;100409.34;;;28.31;56.62
15634;BME280;14654;48.898;8.308;2022-08-24T09:46:16;100402.09;;;28.33;55.32
15634;BME280;14654;48.898;8.308;2022-08-24T09:51:45;100401.00;;;28.35;55.83
15634;BME280;14654;48.898;8.308;2022-08-24T09:57:23;100390.84;;;28.62;55.23
15634;BME280;14654;48.898;8.308;2022-08-24T10:00:04;100400.63;;;28.61;55.51
15634;BME280;14654;48.898;8.308;2022-08-24T10:03:04;100398.16;;;28.81;55.41
15634;BME280;14654;48.898;8.308;2022-08-24T10:16:53;100376.31;;;29.08;54.09
15634;BME280;14654;48.898;8.308;2022-08-24T10:31:06;100360.63;;;29.36;52.87
15634;BME280;14654;48.898;8.308;2022-08-24T10:53:39;100345.00;;;29.82;52.70
15634;BME280;14654;48.898;8.308;2022-08-24T10:56:15;100342.22;;;29.84;52.96
15634;BME280;14654;48.898;8.308;2022-08-24T11:03:56;100341.44;;;30.22;53.16
15634;BME280;14654;48.898;8.308;2022-08-24T11:06:25;100340.31;;;30.15;53.30
15634;BME280;14654;48.898;8.308;2022-08-24T11:08:54;100338.75;;;30.03;52.98
15634;BME280;14654;48.898;8.308;2022-08-24T11:11:35;100348.69;;;29.91;51.53
15634;BME280;14654;48.898;8.308;2022-08-24T11:14:25;100329.03;;;29.92;51.37
15634;BME280;14654;48.898;8.308;2022-08-24T11:16:51;100331.84;;;29.90;51.93
15634;BME280;14654;48.898;8.308;2022-08-24T11:21:54;100330.59;;;29.94;51.79
15634;BME280;14654;48.898;8.308;2022-08-24T11:27:16;100319.34;;;29.91;50.57
15634;BME280;14654;48.898;8.308;2022-08-24T11:32:42;100309.41;;;30.13;50.46
15634;BME280;14654;48.898;8.308;2022-08-24T11:37:37;100321.06;;;30.02;50.03
15634;BME280;14654;48.898;8.308;2022-08-24T11:40:05;100333.97;;;30.06;50.08
15634;BME280;14654;48.898;8.308;2022-08-24T11:45:33;100320.38;;;30.29;49.43
15634;BME280;14654;48.898;8.308;2022-08-24T11:50:40;100326.38;;;30.41;49.80
15634;BME280;14654;48.898;8.308;2022-08-24T11:53:35;100326.81;;;30.36;49.46
15634;BME280;14654;48.898;8.308;2022-08-24T11:56:17;100310.94;;;30.45;49.69
15634;BME280;14654;48.898;8.308;2022-08-24T12:01:34;100314.50;;;30.83;49.96
15634;BME280;14654;48.898;8.308;2022-08-24T12:10:13;100313.13;;;30.79;49.42
15634;BME280;14654;48.898;8.308;2022-08-24T12:15:42;100315.13;;;30.47;49.77
15634;BME280;14654;48.898;8.308;2022-08-24T12:18:23;100308.56;;;30.32;49.80
15634;BME280;14654;48.898;8.308;2022-08-24T12:20:52;100307.41;;;30.44;49.89
15634;BME280;14654;48.898;8.308;2022-08-24T12:23:35;100311.63;;;30.47;50.00
15634;BME280;14654;48.898;8.308;2022-08-24T12:26:07;100298.97;;;30.59;49.93
15634;BME280;14654;48.898;8.308;2022-08-24T12:28:47;100305.03;;;30.61;49.76
15634;BME280;14654;48.898;8.308;2022-08-24T12:33:51;100292.75;;;30.78;50.34
15634;BME280;14654;48.898;8.308;2022-08-24T12:36:32;100290.47;;;30.83;50.25
15634;BME280;14654;48.898;8.308;2022-08-24T12:39:13;100279.50;;;30.86;50.60
15634;BME280;14654;48.898;8.308;2022-08-24T12:42:02;100281.53;;;30.64;50.40
15634;BME280;14654;48.898;8.308;2022-08-24T12:44:49;100288.88;;;30.62;51.01
15634;BME280;14654;48.898;8.308;2022-08-24T12:47:45;100285.19;;;30.63;50.60
15634;BME280;14654;48.898;8.308;2022-08-24T12:50:26;100287.00;;;30.53;50.27
15634;BME280;14654;48.898;8.308;2022-08-24T12:58:56;100288.97;;;30.70;50.51
15634;BME280;14654;48.898;8.308;2022-08-24T13:01:27;100284.06;;;30.66;50.48
15634;BME280;14654;48.898;8.308;2022-08-24T13:04:29;100273.66;;;30.53;51.14
15634;BME280;14654;48.898;8.308;2022-08-24T13:07:25;100279.00;;;30.63;51.29
15634;BME280;14654;48.898;8.308;2022-08-24T13:17:46;100278.03;;;30.54;50.91
15634;BME280;14654;48.898;8.308;2022-08-24T13:28:31;100260.56;;;30.69;50.93
15634;BME280;14654;48.898;8.308;2022-08-24T13:33:35;100264.19;;;30.78;50.99
15634;BME280;14654;48.898;8.308;2022-08-24T13:41:39;100249.34;;;31.04;50.69
15634;BME280;14654;48.898;8.308;2022-08-24T13:44:29;100255.66;;;31.02;49.86
15634;BME280;14654;48.898;8.308;2022-08-24T13:52:44;100250.69;;;30.80;49.60
15634;BME280;14654;48.898;8.308;2022-08-24T13:58:21;100255.63;;;30.84;50.05
15634;BME280;14654;48.898;8.308;2022-08-24T14:01:02;100250.84;;;30.78;50.81
15634;BME280;14654;48.898;8.308;2022-08-24T14:03:40;100242.88;;;30.68;50.12
15634;BME280;14654;48.898;8.308;2022-08-24T14:06:24;100246.97;;;30.63;49.77
15634;BME280;14654;48.898;8.308;2022-08-24T14:09:04;100241.78;;;30.61;49.25
15634;BME280;14654;48.898;8.308;2022-08-24T14:21:20;100240.94;;;30.61;48.99
15634;BME280;14654;48.898;8.308;2022-08-24T14:45:08;100214.88;;;31.00;48.84
15634;BME280;14654;48.898;8.308;2022-08-24T14:50:45;100216.03;;;30.98;48.85
15634;BME280;14654;48.898;8.308;2022-08-24T15:07:57;100195.84;;;30.85;49.35
15634;BME280;14654;48.898;8.308;2022-08-24T15:10:27;100196.44;;;30.79;49.94
15634;BME280;14654;48.898;8.308;2022-08-24T15:13:03;100192.25;;;30.77;49.86
15634;BME280;14654;48.898;8.308;2022-08-24T15:15:34;100182.78;;;30.82;49.70
15634;BME280;14654;48.898;8.308;2022-08-24T15:23:42;100178.28;;;30.83;49.43
15634;BME280;14654;48.898;8.308;2022-08-24T15:29:16;100192.25;;;30.77;49.19
15634;BME280;14654;48.898;8.308;2022-08-24T15:31:54;100187.88;;;30.76;49.14
15634;BME280;14654;48.898;8.308;2022-08-24T15:34:32;100180.00;;;30.74;49.60
15634;BME280;14654;48.898;8.308;2022-08-24T15:36:59;100180.59;;;30.68;49.72
15634;BME280;14654;48.898;8.308;2022-08-24T15:39:26;100181.00;;;30.73;50.10
15634;BME280;14654;48.898;8.308;2022-08-24T15:41:52;100179.16;;;30.74;50.31
15634;BME280;14654;48.898;8.308;2022-08-24T15:44:23;100180.28;;;30.71;50.25
15634;BME280;14654;48.898;8.308;2022-08-24T15:47:02;100176.53;;;30.64;49.38
15634;BME280;14654;48.898;8.308;2022-08-24T15:49:34;100178.97;;;30.57;49.34
15634;BME280;14654;48.898;8.308;2022-08-24T15:52:07;100182.16;;;30.61;49.77
15634;BME280;14654;48.898;8.308;2022-08-24T15:54:45;100175.16;;;30.60;50.04
15634;BME280;14654;48.898;8.308;2022-08-24T15:59:50;100180.19;;;30.53;50.22
15634;BME280;14654;48.898;8.308;2022-08-24T16:02:20;100188.81;;;30.47;50.17
15634;BME280;14654;48.898;8.308;2022-08-24T16:15:50;100177.13;;;30.58;49.99
15634;BME280;14654;48.898;8.308;2022-08-24T16:18:18;100187.38;;;30.52;49.32
15634;BME280;14654;48.898;8.308;2022-08-24T16:20:45;100185.16;;;30.48;49.84
15634;BME280;14654;48.898;8.308;2022-08-24T16:23:23;100183.16;;;30.50;49.29
15634;BME280;14654;48.898;8.308;2022-08-24T16:26:17;100178.81;;;30.49;49.38
15634;BME280;14654;48.898;8.308;2022-08-24T16:28:43;100176.28;;;30.47;49.47
15634;BME280;14654;48.898;8.308;2022-08-24T16:31:08;100178.13;;;30.47;49.77
15634;BME280;14654;48.898;8.308;2022-08-24T16:33:35;100192.47;;;30.46;49.31
15634;BME280;14654;48.898;8.308;2022-08-24T16:36:04;100185.31;;;30.36;48.59
15634;BME280;14654;48.898;8.308;2022-08-24T16:38:31;100186.31;;;30.35;47.99
15634;BME280;14654;48.898;8.308;2022-08-24T16:40:59;100186.75;;;30.31;48.30
15634;BME280;14654;48.898;8.308;2022-08-24T16:43:24;100177.22;;;30.28;48.04
15634;BME280;14654;48.898;8.308;2022-08-24T16:45:52;100182.84;;;30.25;48.18
15634;BME280;14654;48.898;8.308;2022-08-24T16:48:17;100186.06;;;30.19;48.66
15634;BME280;14654;48.898;8.308;2022-08-24T16:50:45;100187.34;;;30.15;48.67
15634;BME280;14654;48.898;8.308;2022-08-24T16:53:10;100181.31;;;30.13;48.56
15634;BME280;14654;48.898;8.308;2022-08-24T16:55:36;100178.22;;;30.07;48.65
15634;BME280;14654;48.898;8.308;2022-08-24T16:58:01;100180.78;;;30.09;48.43
15634;BME280;14654;48.898;8.308;2022-08-24T17:00:27;100183.72;;;30.06;48.35
15634;BME280;14654;48.898;8.308;2022-08-24T17:02:52;100179.50;;;30.03;48.13
15634;BME280;14654;48.898;8.308;2022-08-24T17:05:18;100182.47;;;30.00;48.28
15634;BME280;14654;48.898;8.308;2022-08-24T17:07:44;100178.13;;;29.99;49.09